sensor_id;sensor_type;location;lat;lon;timestamp;pressure;altitude;pressure_sealevel;temperature
27826;BMP280;15077;49.704;9.908;2023-04-24T00:00:05;97091.00;;;16.28
27826;BMP280;15077;49.704;9.908;2023-04-24T00:02:32;97080.22;;;16.25
27826;BMP280;15077;49.704;9.908;2023-04-24T00:05:01;97093.94;;;16.24
27826;BMP280;15077;49.704;9.908;2023-04-24T00:07:28;97093.34;;;16.20
27826;BMP280;15077;49.704;9.908;2023-04-24T00:09:54;97079.72;;;16.20
27826;BMP280;15077;49.704;9.908;2023-04-24T00:12:20;97080.66;;;16.19
27826;BMP280;15077;49.704;9.908;2023-04-24T00:14:46;97076.47;;;16.18
27826;BMP280;15077;49.704;9.908;2023-04-24T00:17:12;97073.25;;;16.16
27826;BMP280;15077;49.704;9.908;2023-04-24T00:19:37;97074.84;;;16.17
27826;BMP280;15077;49.704;9.908;2023-04-24T00:22:03;97084.41;;;16.15
27826;BMP280;15077;49.704;9.908;2023-04-24T00:24:29;97078.59;;;16.13
27826;BMP280;15077;49.704;9.908;2023-04-24T00:26:55;97070.94;;;16.13
27826;BMP280;15077;49.704;9.908;2023-04-24T00:29:21;97069.28;;;16.12
27826;BMP280;15077;49.704;9.908;2023-04-24T00:31:47;97066.75;;;16.12
27826;BMP280;15077;49.704;9.908;2023-04-24T00:34:13;97060.78;;;16.11
27826;BMP280;15077;49.704;9.908;2023-04-24T00:36:40;97052.31;;;16.11
27826;BMP280;15077;49.704;9.908;2023-04-24T00:39:08;97055.00;;;16.09
27826;BMP280;15077;49.704;9.908;2023-04-24T00:41:36;97061.75;;;16.10
27826;BMP280;15077;49.704;9.908;2023-04-24T00:44:03;97057.44;;;16.11
27826;BMP280;15077;49.704;9.908;2023-04-24T00:46:31;97066.03;;;16.10
27826;BMP280;15077;49.704;9.908;2023-04-24T00:48:58;97068.38;;;16.13
27826;BMP280;15077;49.704;9.908;2023-04-24T00:51:24;97060.69;;;16.13
27826;BMP280;15077;49.704;9.908;2023-04-24T00:53:50;97062.31;;;16.14
27826;BMP280;15077;49.704;9.908;2023-04-24T00:56:18;97063.03;;;16.16
27826;BMP280;15077;49.704;9.908;2023-04-24T00:58:44;97056.84;;;16.18
27826;BMP280;15077;49.704;9.908;2023-04-24T01:01:11;97061.94;;;16.18
27826;BMP280;15077;49.704;9.908;2023-04-24T01:03:37;97063.81;;;16.16
27826;BMP280;15077;49.704;9.908;2023-04-24T01:06:04;97060.59;;;16.14
27826;BMP280;15077;49.704;9.908;2023-04-24T01:08:31;97056.50;;;16.12
27826;BMP280;15077;49.704;9.908;2023-04-24T01:10:57;97059.06;;;16.12
27826;BMP280;15077;49.704;9.908;2023-04-24T01:13:24;97059.06;;;16.12
27826;BMP280;15077;49.704;9.908;2023-04-24T01:15:50;97053.97;;;16.12
27826;BMP280;15077;49.704;9.908;2023-04-24T01:18:16;97049.53;;;16.14
27826;BMP280;15077;49.704;9.908;2023-04-24T01:20:43;97052.09;;;16.14
27826;BMP280;15077;49.704;9.908;2023-04-24T01:23:10;97047.81;;;16.14
27826;BMP280;15077;49.704;9.908;2023-04-24T01:25:37;97052.22;;;16.12
27826;BMP280;15077;49.704;9.908;2023-04-24T01:28:03;97053.25;;;16.10
27826;BMP280;15077;49.704;9.908;2023-04-24T01:30:30;97051.75;;;16.07
27826;BMP280;15077;49.704;9.908;2023-04-24T01:32:58;97048.50;;;16.05
27826;BMP280;15077;49.704;9.908;2023-04-24T01:35:24;97053.03;;;16.02
27826;BMP280;15077;49.704;9.908;2023-04-24T01:37:50;97049.81;;;16.00
27826;BMP280;15077;49.704;9.908;2023-04-24T01:40:16;97053.53;;;15.96
27826;BMP280;15077;49.704;9.908;2023-04-24T01:42:42;97049.44;;;15.94
27826;BMP280;15077;49.704;9.908;2023-04-24T01:45:11;97054.00;;;15.90
27826;BMP280;15077;49.704;9.908;2023-04-24T01:47:39;97044.03;;;15.87
27826;BMP280;15077;49.704;9.908;2023-04-24T01:50:05;97040.78;;;15.85
27826;BMP280;15077;49.704;9.908;2023-04-24T01:52:32;97036.59;;;15.84
27826;BMP280;15077;49.704;9.908;2023-04-24T01:55:03;97045.06;;;15.85
27826;BMP280;15077;49.704;9.908;2023-04-24T01:57:31;97038.22;;;15.85
27826;BMP280;15077;49.704;9.908;2023-04-24T01:59:57;97038.22;;;15.85
27826;BMP280;15077;49.704;9.908;2023-04-24T02:02:23;97037.28;;;15.86
27826;BMP280;15077;49.704;9.908;2023-04-24T02:04:53;97038.91;;;15.87
27826;BMP280;15077;49.704;9.908;2023-04-24T02:07:19;97029.50;;;15.88
27826;BMP280;15077;49.704;9.908;2023-04-24T02:09:45;97018.47;;;15.87
27826;BMP280;15077;49.704;9.908;2023-04-24T02:12:11;97021.69;;;15.89
27826;BMP280;15077;49.704;9.908;2023-04-24T02:14:37;97015.56;;;15.92
27826;BMP280;15077;49.704;9.908;2023-04-24T02:17:03;97011.97;;;15.94
27826;BMP280;15077;49.704;9.908;2023-04-24T02:19:30;97013.69;;;15.94
27826;BMP280;15077;49.704;9.908;2023-04-24T02:21:56;97015.56;;;15.92
27826;BMP280;15077;49.704;9.908;2023-04-24T02:24:22;97008.13;;;15.89
27826;BMP280;15077;49.704;9.908;2023-04-24T02:26:47;97016.59;;;15.89
27826;BMP280;15077;49.704;9.908;2023-04-24T02:29:13;97004.91;;;15.87
27826;BMP280;15077;49.704;9.908;2023-04-24T02:31:39;97009.28;;;15.85
27826;BMP280;15077;49.704;9.908;2023-04-24T02:34:05;97006.06;;;15.83
27826;BMP280;15077;49.704;9.908;2023-04-24T02:36:31;97005.50;;;15.79
27826;BMP280;15077;49.704;9.908;2023-04-24T02:38:57;97004.78;;;15.77
27826;BMP280;15077;49.704;9.908;2023-04-24T02:41:23;97006.66;;;15.75
27826;BMP280;15077;49.704;9.908;2023-04-24T02:43:49;97002.47;;;15.74
27826;BMP280;15077;49.704;9.908;2023-04-24T02:46:15;97005.00;;;15.74
27826;BMP280;15077;49.704;9.908;2023-04-24T02:48:40;97012.00;;;15.72
27826;BMP280;15077;49.704;9.908;2023-04-24T02:51:06;97011.19;;;15.72
27826;BMP280;15077;49.704;9.908;2023-04-24T02:53:32;97007.81;;;15.71
27826;BMP280;15077;49.704;9.908;2023-04-24T02:55:58;97008.03;;;15.68
27826;BMP280;15077;49.704;9.908;2023-04-24T02:58:24;97014.09;;;15.67
27826;BMP280;15077;49.704;9.908;2023-04-24T03:00:54;97004.09;;;15.64
27826;BMP280;15077;49.704;9.908;2023-04-24T03:03:21;97009.44;;;15.61
27826;BMP280;15077;49.704;9.908;2023-04-24T03:05:47;97004.44;;;15.60
27826;BMP280;15077;49.704;9.908;2023-04-24T03:08:13;96998.53;;;15.59
27826;BMP280;15077;49.704;9.908;2023-04-24T03:10:40;97006.19;;;15.59
27826;BMP280;15077;49.704;9.908;2023-04-24T03:13:06;97001.22;;;15.58
27826;BMP280;15077;49.704;9.908;2023-04-24T03:15:31;97003.88;;;15.56
27826;BMP280;15077;49.704;9.908;2023-04-24T03:17:57;96995.53;;;15.54
27826;BMP280;15077;49.704;9.908;2023-04-24T03:20:23;96997.38;;;15.52
27826;BMP280;15077;49.704;9.908;2023-04-24T03:22:49;96997.50;;;15.51
27826;BMP280;15077;49.704;9.908;2023-04-24T03:25:15;97001.13;;;15.49
27826;BMP280;15077;49.704;9.908;2023-04-24T03:27:41;97001.34;;;15.46
27826;BMP280;15077;49.704;9.908;2023-04-24T03:30:08;96989.50;;;15.45
27826;BMP280;15077;49.704;9.908;2023-04-24T03:32:33;96988.09;;;15.41
27826;BMP280;15077;49.704;9.908;2023-04-24T03:34:59;96996.72;;;15.40
27826;BMP280;15077;49.704;9.908;2023-04-24T03:37:25;96988.09;;;15.41
27826;BMP280;15077;49.704;9.908;2023-04-24T03:39:52;96992.28;;;15.42
27826;BMP280;15077;49.704;9.908;2023-04-24T03:42:18;96994.84;;;15.42
27826;BMP280;15077;49.704;9.908;2023-04-24T03:44:44;96992.19;;;15.43
27826;BMP280;15077;49.704;9.908;2023-04-24T03:47:10;96986.16;;;15.44
27826;BMP280;15077;49.704;9.908;2023-04-24T03:49:36;96980.94;;;15.46
27826;BMP280;15077;49.704;9.908;2023-04-24T03:52:02;96983.47;;;15.46
27826;BMP280;15077;49.704;9.908;2023-04-24T03:54:28;96986.97;;;15.45
27826;BMP280;15077;49.704;9.908;2023-04-24T03:56:55;96985.19;;;15.45
27826;BMP280;15077;49.704;9.908;2023-04-24T03:59:22;96982.78;;;15.44
27826;BMP280;15077;49.704;9.908;2023-04-24T04:01:50;96992.06;;;15.45
27826;BMP280;15077;49.704;9.908;2023-04-24T04:04:18;96990.31;;;15.45
27826;BMP280;15077;49.704;9.908;2023-04-24T04:06:44;96991.16;;;15.46
27826;BMP280;15077;49.704;9.908;2023-04-24T04:09:12;96987.63;;;15.47
27826;BMP280;15077;49.704;9.908;2023-04-24T04:11:39;96985.81;;;15.49
27826;BMP280;15077;49.704;9.908;2023-04-24T04:14:05;96990.78;;;15.50
27826;BMP280;15077;49.704;9.908;2023-04-24T04:16:31;96980.69;;;15.49
27826;BMP280;15077;49.704;9.908;2023-04-24T04:18:57;96984.84;;;15.50
27826;BMP280;15077;49.704;9.908;2023-04-24T04:21:24;96990.06;;;15.48
27826;BMP280;15077;49.704;9.908;2023-04-24T04:23:49;96992.97;;;15.44
27826;BMP280;15077;49.704;9.908;2023-04-24T04:26:15;96989.97;;;15.39
27826;BMP280;15077;49.704;9.908;2023-04-24T04:28:41;97002.19;;;15.35
27826;BMP280;15077;49.704;9.908;2023-04-24T04:31:07;97003.22;;;15.33
27826;BMP280;15077;49.704;9.908;2023-04-24T04:33:33;97002.75;;;15.28
27826;BMP280;15077;49.704;9.908;2023-04-24T04:36:01;97000.78;;;15.31
27826;BMP280;15077;49.704;9.908;2023-04-24T04:38:27;97017.00;;;15.30
27826;BMP280;15077;49.704;9.908;2023-04-24T04:40:56;97020.84;;;15.25
27826;BMP280;15077;49.704;9.908;2023-04-24T04:43:23;97023.53;;;15.23
27826;BMP280;15077;49.704;9.908;2023-04-24T04:45:50;97025.47;;;15.20
27826;BMP280;15077;49.704;9.908;2023-04-24T04:48:17;97022.94;;;15.20
27826;BMP280;15077;49.704;9.908;2023-04-24T04:50:44;97036.59;;;15.19
27826;BMP280;15077;49.704;9.908;2023-04-24T04:53:10;97042.53;;;15.19
27826;BMP280;15077;49.704;9.908;2023-04-24T04:55:37;97055.50;;;15.16
27826;BMP280;15077;49.704;9.908;2023-04-24T04:58:03;97068.19;;;15.18
27826;BMP280;15077;49.704;9.908;2023-04-24T05:00:29;97068.25;;;15.16
27826;BMP280;15077;49.704;9.908;2023-04-24T05:02:59;97068.38;;;15.15
27826;BMP280;15077;49.704;9.908;2023-04-24T05:05:25;97070.22;;;15.13
27826;BMP280;15077;49.704;9.908;2023-04-24T05:07:51;97069.41;;;15.12
27826;BMP280;15077;49.704;9.908;2023-04-24T05:10:17;97077.97;;;15.11
27826;BMP280;15077;49.704;9.908;2023-04-24T05:12:43;97075.53;;;15.10
27826;BMP280;15077;49.704;9.908;2023-04-24T05:15:09;97074.84;;;15.08
27826;BMP280;15077;49.704;9.908;2023-04-24T05:17:35;97075.88;;;15.05
27826;BMP280;15077;49.704;9.908;2023-04-24T05:20:03;97070.19;;;15.02
27826;BMP280;15077;49.704;9.908;2023-04-24T05:22:31;97074.72;;;14.99
27826;BMP280;15077;49.704;9.908;2023-04-24T05:24:57;97075.88;;;14.95
27826;BMP280;15077;49.704;9.908;2023-04-24T05:27:23;97076.09;;;14.92
27826;BMP280;15077;49.704;9.908;2023-04-24T05:29:48;97081.41;;;14.89
27826;BMP280;15077;49.704;9.908;2023-04-24T05:32:14;97091.97;;;14.84
27826;BMP280;15077;49.704;9.908;2023-04-24T05:34:40;97088.72;;;14.82
27826;BMP280;15077;49.704;9.908;2023-04-24T05:37:06;97096.47;;;14.81
27826;BMP280;15077;49.704;9.908;2023-04-24T05:39:34;97090.66;;;14.79
27826;BMP280;15077;49.704;9.908;2023-04-24T05:42:00;97091.72;;;14.76
27826;BMP280;15077;49.704;9.908;2023-04-24T05:44:26;97098.53;;;14.76
27826;BMP280;15077;49.704;9.908;2023-04-24T05:46:52;97105.38;;;14.75
27826;BMP280;15077;49.704;9.908;2023-04-24T05:49:18;97106.19;;;14.76
27826;BMP280;15077;49.704;9.908;2023-04-24T05:51:44;97111.28;;;14.76
27826;BMP280;15077;49.704;9.908;2023-04-24T05:54:10;97108.72;;;14.76
27826;BMP280;15077;49.704;9.908;2023-04-24T05:56:38;97108.72;;;14.76
27826;BMP280;15077;49.704;9.908;2023-04-24T05:59:03;97129.03;;;14.77
27826;BMP280;15077;49.704;9.908;2023-04-24T06:01:29;97130.56;;;14.80
27826;BMP280;15077;49.704;9.908;2023-04-24T06:03:57;97132.19;;;14.81
27826;BMP280;15077;49.704;9.908;2023-04-24T06:06:24;97140.66;;;14.81
27826;BMP280;15077;49.704;9.908;2023-04-24T06:08:49;97136.47;;;14.80
27826;BMP280;15077;49.704;9.908;2023-04-24T06:11:15;97141.56;;;14.80
27826;BMP280;15077;49.704;9.908;2023-04-24T06:13:41;97144.09;;;14.80
27826;BMP280;15077;49.704;9.908;2023-04-24T06:16:07;97142.38;;;14.81
27826;BMP280;15077;49.704;9.908;2023-04-24T06:18:33;97146.66;;;14.80
27826;BMP280;15077;49.704;9.908;2023-04-24T06:20:59;97156.16;;;14.78
27826;BMP280;15077;49.704;9.908;2023-04-24T06:23:27;97147.81;;;14.76
27826;BMP280;15077;49.704;9.908;2023-04-24T06:25:53;97157.19;;;14.76
27826;BMP280;15077;49.704;9.908;2023-04-24T06:28:19;97157.41;;;14.73
27826;BMP280;15077;49.704;9.908;2023-04-24T06:30:44;97159.16;;;14.72
27826;BMP280;15077;49.704;9.908;2023-04-24T06:33:10;97154.16;;;14.71
27826;BMP280;15077;49.704;9.908;2023-04-24T06:35:36;97155.78;;;14.72
27826;BMP280;15077;49.704;9.908;2023-04-24T06:38:03;97156.59;;;14.72
27826;BMP280;15077;49.704;9.908;2023-04-24T06:40:29;97159.84;;;14.74
27826;BMP280;15077;49.704;9.908;2023-04-24T06:42:55;97159.63;;;14.77
27826;BMP280;15077;49.704;9.908;2023-04-24T06:45:23;97162.19;;;14.77
27826;BMP280;15077;49.704;9.908;2023-04-24T06:47:49;97163.13;;;14.76
27826;BMP280;15077;49.704;9.908;2023-04-24T06:50:15;97166.38;;;14.78
27826;BMP280;15077;49.704;9.908;2023-04-24T06:52:40;97156.16;;;14.78
27826;BMP280;15077;49.704;9.908;2023-04-24T06:55:07;97168.22;;;14.76
27826;BMP280;15077;49.704;9.908;2023-04-24T06:57:33;97163.94;;;14.77
27826;BMP280;15077;49.704;9.908;2023-04-24T06:59:58;97166.38;;;14.78
27826;BMP280;15077;49.704;9.908;2023-04-24T07:02:25;97167.06;;;14.80
27826;BMP280;15077;49.704;9.908;2023-04-24T07:04:51;97177.16;;;14.82
27826;BMP280;15077;49.704;9.908;2023-04-24T07:07:16;97192.47;;;14.82
27826;BMP280;15077;49.704;9.908;2023-04-24T07:09:42;97184.69;;;14.83
27826;BMP280;15077;49.704;9.908;2023-04-24T07:12:09;97180.44;;;14.84
27826;BMP280;15077;49.704;9.908;2023-04-24T07:14:37;97185.19;;;14.88
27826;BMP280;15077;49.704;9.908;2023-04-24T07:17:04;97191.69;;;14.92
27826;BMP280;15077;49.704;9.908;2023-04-24T07:19:30;97181.38;;;14.94
27826;BMP280;15077;49.704;9.908;2023-04-24T07:21:56;97188.69;;;14.98
27826;BMP280;15077;49.704;9.908;2023-04-24T07:24:26;97195.13;;;15.03
27826;BMP280;15077;49.704;9.908;2023-04-24T07:26:53;97193.38;;;15.04
27826;BMP280;15077;49.704;9.908;2023-04-24T07:29:19;97197.34;;;15.08
27826;BMP280;15077;49.704;9.908;2023-04-24T07:31:46;97187.81;;;15.10
27826;BMP280;15077;49.704;9.908;2023-04-24T07:34:12;97200.34;;;15.13
27826;BMP280;15077;49.704;9.908;2023-04-24T07:36:38;97198.41;;;15.16
27826;BMP280;15077;49.704;9.908;2023-04-24T07:39:05;97197.31;;;15.20
27826;BMP280;15077;49.704;9.908;2023-04-24T07:41:31;97202.41;;;15.20
27826;BMP280;15077;49.704;9.908;2023-04-24T07:43:58;97194.75;;;15.20
27826;BMP280;15077;49.704;9.908;2023-04-24T07:46:24;97206.47;;;15.23
27826;BMP280;15077;49.704;9.908;2023-04-24T07:48:50;97211.56;;;15.23
27826;BMP280;15077;49.704;9.908;2023-04-24T07:51:16;97218.31;;;15.24
27826;BMP280;15077;49.704;9.908;2023-04-24T07:53:43;97207.31;;;15.23
27826;BMP280;15077;49.704;9.908;2023-04-24T07:56:09;97212.50;;;15.22
27826;BMP280;15077;49.704;9.908;2023-04-24T07:58:35;97208.31;;;15.21
27826;BMP280;15077;49.704;9.908;2023-04-24T08:01:01;97208.22;;;15.22
27826;BMP280;15077;49.704;9.908;2023-04-24T08:03:27;97222.72;;;15.22
27826;BMP280;15077;49.704;9.908;2023-04-24T08:05:53;97218.53;;;15.21
27826;BMP280;15077;49.704;9.908;2023-04-24T08:08:22;97225.28;;;15.22
27826;BMP280;15077;49.704;9.908;2023-04-24T08:10:49;97230.28;;;15.23
27826;BMP280;15077;49.704;9.908;2023-04-24T08:13:15;97232.00;;;15.23
27826;BMP280;15077;49.704;9.908;2023-04-24T08:15:40;97228.84;;;15.19
27826;BMP280;15077;49.704;9.908;2023-04-24T08:18:07;97227.28;;;15.17
27826;BMP280;15077;49.704;9.908;2023-04-24T08:20:32;97231.72;;;15.15
27826;BMP280;15077;49.704;9.908;2023-04-24T08:22:58;97242.81;;;15.14
27826;BMP280;15077;49.704;9.908;2023-04-24T08:25:24;97242.94;;;15.12
27826;BMP280;15077;49.704;9.908;2023-04-24T08:27:51;97241.19;;;15.13
27826;BMP280;15077;49.704;9.908;2023-04-24T08:30:17;97255.47;;;15.15
27826;BMP280;15077;49.704;9.908;2023-04-24T08:32:43;97252.22;;;15.13
27826;BMP280;15077;49.704;9.908;2023-04-24T08:35:09;97244.69;;;15.12
27826;BMP280;15077;49.704;9.908;2023-04-24T08:37:36;97260.69;;;15.14
27826;BMP280;15077;49.704;9.908;2023-04-24T08:40:16;97253.94;;;15.13
27826;BMP280;15077;49.704;9.908;2023-04-24T08:42:43;97262.34;;;15.15
27826;BMP280;15077;49.704;9.908;2023-04-24T08:45:11;97263.94;;;15.16
27826;BMP280;15077;49.704;9.908;2023-04-24T08:47:40;97262.34;;;15.15
27826;BMP280;15077;49.704;9.908;2023-04-24T08:50:08;97269.47;;;15.10
27826;BMP280;15077;49.704;9.908;2023-04-24T08:52:35;97264.59;;;15.07
27826;BMP280;15077;49.704;9.908;2023-04-24T08:55:02;97264.91;;;15.02
27826;BMP280;15077;49.704;9.908;2023-04-24T08:57:28;97260.16;;;14.98
27826;BMP280;15077;49.704;9.908;2023-04-24T08:59:57;97259.66;;;14.93
27826;BMP280;15077;49.704;9.908;2023-04-24T09:02:24;97269.38;;;14.88
27826;BMP280;15077;49.704;9.908;2023-04-24T09:04:50;97270.53;;;14.84
27826;BMP280;15077;49.704;9.908;2023-04-24T09:07:19;97265.84;;;14.78
27826;BMP280;15077;49.704;9.908;2023-04-24T09:09:45;97265.25;;;14.75
27826;BMP280;15077;49.704;9.908;2023-04-24T09:12:11;97259.41;;;14.73
27826;BMP280;15077;49.704;9.908;2023-04-24T09:14:38;97268.59;;;14.75
27826;BMP280;15077;49.704;9.908;2023-04-24T09:17:08;97261.44;;;14.80
27826;BMP280;15077;49.704;9.908;2023-04-24T09:19:33;97259.41;;;14.85
27826;BMP280;15077;49.704;9.908;2023-04-24T09:21:59;97251.44;;;14.90
27826;BMP280;15077;49.704;9.908;2023-04-24T09:24:25;97252.81;;;14.94
27826;BMP280;15077;49.704;9.908;2023-04-24T09:27:01;97268.53;;;15.00
27826;BMP280;15077;49.704;9.908;2023-04-24T09:29:27;97270.75;;;15.04
27826;BMP280;15077;49.704;9.908;2023-04-24T09:31:53;97267.66;;;15.12
27826;BMP280;15077;49.704;9.908;2023-04-24T09:34:24;97272.03;;;15.22
27826;BMP280;15077;49.704;9.908;2023-04-24T09:36:53;97279.59;;;15.35
27826;BMP280;15077;49.704;9.908;2023-04-24T09:39:21;97272.59;;;15.49
27826;BMP280;15077;49.704;9.908;2023-04-24T09:41:54;97285.38;;;15.60
27826;BMP280;15077;49.704;9.908;2023-04-24T09:44:27;97277.19;;;15.67
27826;BMP280;15077;49.704;9.908;2023-04-24T09:46:55;97277.84;;;15.58
27826;BMP280;15077;49.704;9.908;2023-04-24T09:49:33;97274.19;;;15.73
27826;BMP280;15077;49.704;9.908;2023-04-24T09:52:07;97274.88;;;15.86
27826;BMP280;15077;49.704;9.908;2023-04-24T09:54:33;97278.63;;;15.93
27826;BMP280;15077;49.704;9.908;2023-04-24T09:56:59;97283.28;;;15.99
27826;BMP280;15077;49.704;9.908;2023-04-24T09:59:28;97270.72;;;16.07
27826;BMP280;15077;49.704;9.908;2023-04-24T10:01:55;97269.59;;;16.11
27826;BMP280;15077;49.704;9.908;2023-04-24T10:04:23;97277.03;;;16.14
27826;BMP280;15077;49.704;9.908;2023-04-24T10:06:51;97287.25;;;16.14
27826;BMP280;15077;49.704;9.908;2023-04-24T10:09:21;97280.53;;;16.13
27826;BMP280;15077;49.704;9.908;2023-04-24T10:11:50;97279.81;;;16.11
27826;BMP280;15077;49.704;9.908;2023-04-24T10:14:19;97284.22;;;16.09
27826;BMP280;15077;49.704;9.908;2023-04-24T10:16:47;97280.03;;;16.08
27826;BMP280;15077;49.704;9.908;2023-04-24T10:19:17;97283.09;;;16.13
27826;BMP280;15077;49.704;9.908;2023-04-24T10:21:46;97280.97;;;16.07
27826;BMP280;15077;49.704;9.908;2023-04-24T10:24:18;97292.53;;;16.23
27826;BMP280;15077;49.704;9.908;2023-04-24T10:26:45;97287.75;;;16.30
27826;BMP280;15077;49.704;9.908;2023-04-24T10:29:16;97293.34;;;16.35
27826;BMP280;15077;49.704;9.908;2023-04-24T10:31:45;97298.22;;;16.38
27826;BMP280;15077;49.704;9.908;2023-04-24T10:34:14;97310.78;;;16.41
27826;BMP280;15077;49.704;9.908;2023-04-24T10:36:48;97314.72;;;16.45
27826;BMP280;15077;49.704;9.908;2023-04-24T10:39:16;97309.50;;;16.46
27826;BMP280;15077;49.704;9.908;2023-04-24T10:41:44;97308.34;;;16.50
27826;BMP280;15077;49.704;9.908;2023-04-24T10:44:14;97320.06;;;16.52
27826;BMP280;15077;49.704;9.908;2023-04-24T10:46:45;97314.03;;;16.53
27826;BMP280;15077;49.704;9.908;2023-04-24T10:49:11;97320.06;;;16.52
27826;BMP280;15077;49.704;9.908;2023-04-24T10:51:54;97322.06;;;16.49
27826;BMP280;15077;49.704;9.908;2023-04-24T10:54:27;97328.94;;;16.49
27826;BMP280;15077;49.704;9.908;2023-04-24T10:59:52;97328.94;;;16.49
27826;BMP280;15077;49.704;9.908;2023-04-24T11:02:39;97339.03;;;16.50
27826;BMP280;15077;49.704;9.908;2023-04-24T11:05:09;97342.41;;;16.51
27826;BMP280;15077;49.704;9.908;2023-04-24T11:08:14;97344.50;;;16.46
27826;BMP280;15077;49.704;9.908;2023-04-24T11:13:25;97347.53;;;16.40
27826;BMP280;15077;49.704;9.908;2023-04-24T11:25:11;97352.78;;;16.15
27826;BMP280;15077;49.704;9.908;2023-04-24T11:27:19;97368.13;;;16.15
27826;BMP280;15077;49.704;9.908;2023-04-24T11:35:16;97350.03;;;16.29
27826;BMP280;15077;49.704;9.908;2023-04-24T11:37:49;97347.88;;;16.35
27826;BMP280;15077;49.704;9.908;2023-04-24T11:40:19;97353.56;;;16.39
27826;BMP280;15077;49.704;9.908;2023-04-24T11:42:51;97369.47;;;16.42
27826;BMP280;15077;49.704;9.908;2023-04-24T11:45:26;97363.56;;;16.42
27826;BMP280;15077;49.704;9.908;2023-04-24T11:47:53;97367.97;;;16.40
27826;BMP280;15077;49.704;9.908;2023-04-24T11:50:22;97389.25;;;16.40
27826;BMP280;15077;49.704;9.908;2023-04-24T11:52:49;97391.00;;;16.40
27826;BMP280;15077;49.704;9.908;2023-04-24T11:57:46;97387.72;;;16.38
27826;BMP280;15077;49.704;9.908;2023-04-24T12:00:18;97376.09;;;16.34
27826;BMP280;15077;49.704;9.908;2023-04-24T12:02:44;97376.09;;;16.34
27826;BMP280;15077;49.704;9.908;2023-04-24T12:05:40;97371.22;;;16.31
27826;BMP280;15077;49.704;9.908;2023-04-24T12:08:06;97370.78;;;16.37
27826;BMP280;15077;49.704;9.908;2023-04-24T12:10:33;97372.25;;;16.39
27826;BMP280;15077;49.704;9.908;2023-04-24T12:13:00;97376.34;;;16.42
27826;BMP280;15077;49.704;9.908;2023-04-24T12:15:27;97372.53;;;16.47
27826;BMP280;15077;49.704;9.908;2023-04-24T12:17:55;97378.22;;;16.51
27826;BMP280;15077;49.704;9.908;2023-04-24T12:20:27;97372.63;;;16.56
27826;BMP280;15077;49.704;9.908;2023-04-24T12:22:56;97375.88;;;16.58
27826;BMP280;15077;49.704;9.908;2023-04-24T12:25:27;97367.06;;;16.62
27826;BMP280;15077;49.704;9.908;2023-04-24T12:30:34;97367.66;;;16.66
27826;BMP280;15077;49.704;9.908;2023-04-24T12:33:02;97364.75;;;16.70
27826;BMP280;15077;49.704;9.908;2023-04-24T12:35:31;97367.75;;;16.75
27826;BMP280;15077;49.704;9.908;2023-04-24T12:38:16;97369.06;;;16.81
27826;BMP280;15077;49.704;9.908;2023-04-24T12:40:43;97367.75;;;16.86
27826;BMP280;15077;49.704;9.908;2023-04-24T12:43:20;97369.59;;;16.95
27826;BMP280;15077;49.704;9.908;2023-04-24T12:45:49;97379.38;;;17.01
27826;BMP280;15077;49.704;9.908;2023-04-24T12:48:14;97390.44;;;17.01
27826;BMP280;15077;49.704;9.908;2023-04-24T12:50:41;97383.81;;;16.99
27826;BMP280;15077;49.704;9.908;2023-04-24T12:53:08;97393.34;;;16.97
27826;BMP280;15077;49.704;9.908;2023-04-24T12:55:34;97386.38;;;16.99
27826;BMP280;15077;49.704;9.908;2023-04-24T12:58:00;97407.75;;;16.98
27826;BMP280;15077;49.704;9.908;2023-04-24T13:00:27;97395.19;;;16.95
27826;BMP280;15077;49.704;9.908;2023-04-24T13:02:53;97388.09;;;16.88
27826;BMP280;15077;49.704;9.908;2023-04-24T13:05:19;97386.72;;;16.84
27826;BMP280;15077;49.704;9.908;2023-04-24T13:07:44;97380.09;;;16.81
27826;BMP280;15077;49.704;9.908;2023-04-24T13:10:10;97374.97;;;16.81
27826;BMP280;15077;49.704;9.908;2023-04-24T13:12:36;97382.41;;;16.84
27826;BMP280;15077;49.704;9.908;2023-04-24T13:15:03;97383.81;;;16.88
27826;BMP280;15077;49.704;9.908;2023-04-24T13:17:29;97388.47;;;16.94
27826;BMP280;15077;49.704;9.908;2023-04-24T13:19:55;97384.84;;;16.97
27826;BMP280;15077;49.704;9.908;2023-04-24T13:22:22;97387.28;;;16.98
27826;BMP280;15077;49.704;9.908;2023-04-24T13:24:47;97385.31;;;17.01
27826;BMP280;15077;49.704;9.908;2023-04-24T13:27:17;97389.16;;;17.07
27826;BMP280;15077;49.704;9.908;2023-04-24T13:29:43;97382.16;;;17.09
27826;BMP280;15077;49.704;9.908;2023-04-24T13:32:09;97385.19;;;17.14
27826;BMP280;15077;49.704;9.908;2023-04-24T13:34:35;97383.81;;;17.21
27826;BMP280;15077;49.704;9.908;2023-04-24T13:37:03;97375.41;;;17.30
27826;BMP280;15077;49.704;9.908;2023-04-24T13:39:30;97372.00;;;17.40
27826;BMP280;15077;49.704;9.908;2023-04-24T13:41:57;97373.47;;;17.53
27826;BMP280;15077;49.704;9.908;2023-04-24T13:44:23;97377.06;;;17.62
27826;BMP280;15077;49.704;9.908;2023-04-24T13:46:53;97372.16;;;17.70
27826;BMP280;15077;49.704;9.908;2023-04-24T13:49:21;97373.91;;;17.69
27826;BMP280;15077;49.704;9.908;2023-04-24T13:51:47;97377.38;;;17.68
27826;BMP280;15077;49.704;9.908;2023-04-24T13:54:13;97377.63;;;17.65
27826;BMP280;15077;49.704;9.908;2023-04-24T13:56:42;97368.22;;;17.66
27826;BMP280;15077;49.704;9.908;2023-04-24T13:59:08;97380.44;;;17.62
27826;BMP280;15077;49.704;9.908;2023-04-24T14:01:34;97388.63;;;17.56
27826;BMP280;15077;49.704;9.908;2023-04-24T14:04:00;97384.81;;;17.51
27826;BMP280;15077;49.704;9.908;2023-04-24T14:06:26;97387.94;;;17.44
27826;BMP280;15077;49.704;9.908;2023-04-24T14:08:52;97399.63;;;17.37
27826;BMP280;15077;49.704;9.908;2023-04-24T14:11:19;97407.06;;;17.29
27826;BMP280;15077;49.704;9.908;2023-04-24T14:13:46;97407.75;;;17.20
27826;BMP280;15077;49.704;9.908;2023-04-24T14:16:12;97409.41;;;17.10
27826;BMP280;15077;49.704;9.908;2023-04-24T14:18:38;97414.28;;;17.02
27826;BMP280;15077;49.704;9.908;2023-04-24T14:21:04;97412.19;;;16.96
27826;BMP280;15077;49.704;9.908;2023-04-24T14:23:33;97409.41;;;16.88
27826;BMP280;15077;49.704;9.908;2023-04-24T14:26:00;97407.31;;;16.82
27826;BMP280;15077;49.704;9.908;2023-04-24T14:28:26;97415.91;;;16.81
27826;BMP280;15077;49.704;9.908;2023-04-24T14:30:52;97400.44;;;16.83
27826;BMP280;15077;49.704;9.908;2023-04-24T14:33:18;97399.41;;;16.85